Titusville, Florida
Current Conditions -  °F | °C
As of 8:55 PM on Tuesday 25 Nov 2014 (Local Time) from KTIX Reporting Station
Moderate Rain Moderate Rain  
Wind Chill: 70°   Ceiling: 300
Heat Index: 70°   Visibility: 3mi
Dew Point: 68°   Wind: 6mph
Humidity: 94%   Direction: 50°NE
Pressure: 29.96"   Gusts: NA
Location:  28.61°N, 80.81°W
Report Text: KTIX 260155Z 05005KT 3SM RA BKN003 BKN008 OVC020 21/20 A2996 RMK LAST
Loading
Personal Weather Stations






























Interactive Weather Map New forecast layout! Learn more

10-Day Weather Forecast

Advertisements
Track Severe Weather on mobile